Time;durP1;ratioP1;P1;durP2;ratioP2;P2;SDS_P1;SDS_P2;PMS_P1;PMS_P2;Temp;Humidity;BMP_temperature;BMP_pressure;BME280_temperature;BME280_humidity;BME280_pressure;Samples;Min_cycle;Max_cycle;Signal;HPM_P1;HPM_P2
2023/07/24 00:00:07;;;;;;;11.65;3.80;;;;;;;;;;5077566;28;20020;-72
2023/07/24 00:02:33;;;;;;;7.28;3.80;;;;;;;;;;5068708;28;20472;-73
2023/07/24 00:04:59;;;;;;;4.82;3.35;;;;;;;;;;5069669;28;20396;-73
2023/07/24 00:07:25;;;;;;;6.82;3.65;;;;;;;;;;5064375;28;20045;-73
2023/07/24 00:09:52;;;;;;;6.28;3.90;;;;;;;;;;5063668;28;20099;-73
2023/07/24 00:12:18;;;;;;;6.93;3.70;;;;;;;;;;5076409;28;20471;-73
2023/07/24 00:14:44;;;;;;;8.88;4.47;;;;;;;;;;5085948;28;20066;-73
2023/07/24 00:17:10;;;;;;;6.68;3.80;;;;;;;;;;5076205;28;20036;-72
2023/07/24 00:19:37;;;;;;;4.47;3.60;;;;;;;;;;5064436;28;20029;-74
2023/07/24 00:22:03;;;;;;;7.07;3.72;;;;;;;;;;5071332;28;20370;-73
2023/07/24 00:24:30;;;;;;;5.72;3.88;;;;;;;;;;5063415;28;20021;-75
2023/07/24 00:26:56;;;;;;;7.05;3.50;;;;;;;;;;5073209;28;20033;-73
2023/07/24 00:29:23;;;;;;;6.72;3.80;;;;;;;;;;5072295;28;20082;-73
2023/07/24 00:31:49;;;;;;;5.43;3.92;;;;;;;;;;5059171;28;20028;-73
2023/07/24 00:34:25;;;;;;;8.27;3.72;;;;;;;;;;5085226;28;20062;-75
2023/07/24 00:36:51;;;;;;;7.18;4.15;;;;;;;;;;5065380;28;20036;-74
2023/07/24 00:39:17;;;;;;;5.97;4.07;;;;;;;;;;5063291;28;20487;-74
2023/07/24 00:41:43;;;;;;;7.93;3.85;;;;;;;;;;5054165;28;20036;-73
2023/07/24 00:44:10;;;;;;;7.03;3.72;;;;;;;;;;5076290;28;20035;-75
2023/07/24 00:46:36;;;;;;;10.15;3.97;;;;;;;;;;5064733;28;20413;-74
2023/07/24 00:49:03;;;;;;;8.45;5.05;;;;;;;;;;5068266;28;20070;-73
2023/07/24 00:51:29;;;;;;;5.82;3.47;;;;;;;;;;5072340;28;20614;-73
2023/07/24 00:53:56;;;;;;;6.53;3.45;;;;;;;;;;5068290;28;20025;-74
2023/07/24 00:56:23;;;;;;;10.25;3.45;;;;;;;;;;5053122;28;20080;-74
2023/07/24 00:58:49;;;;;;;7.35;3.70;;;;;;;;;;5053522;28;20021;-74
2023/07/24 01:01:17;;;;;;;7.18;4.15;;;;;;;;;;5064920;28;20495;-74
2023/07/24 01:03:43;;;;;;;9.85;4.22;;;;;;;;;;5062409;28;20380;-73
2023/07/24 01:06:10;;;;;;;7.95;4.38;;;;;;;;;;5067452;28;20043;-75
2023/07/24 01:08:36;;;;;;;15.63;4.03;;;;;;;;;;5066494;28;20051;-74
2023/07/24 01:11:22;;;;;;;7.03;3.88;;;;;;;;;;5061559;28;20459;-73
2023/07/24 01:14:12;;;;;;;5.43;3.38;;;;;;;;;;5056726;28;20116;-74
2023/07/24 01:16:38;;;;;;;8.55;4.15;;;;;;;;;;5052677;28;20039;-74
2023/07/24 01:19:11;;;;;;;3.95;3.35;;;;;;;;;;5067251;28;20021;-73
2023/07/24 01:21:45;;;;;;;8.65;4.72;;;;;;;;;;5059005;28;20028;-74
2023/07/24 01:24:31;;;;;;;8.02;3.88;;;;;;;;;;5063585;28;20419;-74
2023/07/24 01:26:57;;;;;;;6.85;4.10;;;;;;;;;;5057772;28;20062;-74
2023/07/24 01:29:23;;;;;;;5.63;3.78;;;;;;;;;;5063814;28;20389;-75
2023/07/24 01:31:51;;;;;;;8.05;3.65;;;;;;;;;;5057711;28;20421;-75
2023/07/24 01:34:18;;;;;;;5.53;4.00;;;;;;;;;;5074473;28;20275;-74
2023/07/24 01:36:44;;;;;;;5.25;3.50;;;;;;;;;;5061179;28;20438;-75
2023/07/24 01:39:10;;;;;;;8.00;3.88;;;;;;;;;;5053865;28;20484;-73
2023/07/24 01:41:36;;;;;;;8.63;4.45;;;;;;;;;;5049157;28;20144;-75
2023/07/24 01:44:02;;;;;;;9.32;3.88;;;;;;;;;;5070874;28;20021;-74
2023/07/24 01:46:28;;;;;;;5.93;4.50;;;;;;;;;;5066788;28;20314;-74
2023/07/24 01:48:54;;;;;;;6.07;3.55;;;;;;;;;;5059254;28;20052;-74
2023/07/24 01:51:21;;;;;;;6.28;4.07;;;;;;;;;;5072181;28;20383;-76
2023/07/24 01:53:47;;;;;;;6.25;3.80;;;;;;;;;;5067273;28;20048;-75
2023/07/24 01:56:13;;;;;;;5.40;3.97;;;;;;;;;;5056938;28;20160;-74
2023/07/24 01:58:39;;;;;;;6.22;3.40;;;;;;;;;;5059253;28;20025;-74
2023/07/24 02:01:05;;;;;;;4.47;3.20;;;;;;;;;;5065943;28;20028;-74
2023/07/24 02:03:31;;;;;;;7.93;3.28;;;;;;;;;;5067084;28;20028;-73
2023/07/24 02:05:57;;;;;;;9.63;3.65;;;;;;;;;;5059442;28;20028;-73
2023/07/24 02:08:23;;;;;;;10.13;3.90;;;;;;;;;;5058464;28;20044;-74
2023/07/24 02:10:50;;;;;;;7.82;3.75;;;;;;;;;;5058511;28;20507;-74
2023/07/24 02:13:16;;;;;;;8.70;3.67;;;;;;;;;;5056954;28;20032;-75
2023/07/24 02:15:43;;;;;;;13.60;3.47;;;;;;;;;;5054249;28;20122;-73
2023/07/24 02:18:09;;;;;;;6.57;4.03;;;;;;;;;;5056856;28;20029;-75
2023/07/24 02:20:35;;;;;;;6.97;3.63;;;;;;;;;;5062352;28;20028;-74
2023/07/24 02:23:01;;;;;;;8.32;4.22;;;;;;;;;;5061344;28;20171;-71
2023/07/24 02:25:27;;;;;;;5.60;3.15;;;;;;;;;;5072948;28;20463;-73
2023/07/24 02:27:53;;;;;;;5.55;3.47;;;;;;;;;;5074339;28;20382;-72
2023/07/24 02:30:19;;;;;;;6.80;3.60;;;;;;;;;;5071245;28;20025;-72
2023/07/24 02:32:45;;;;;;;6.50;3.65;;;;;;;;;;5061054;28;20032;-73
2023/07/24 02:35:12;;;;;;;7.35;3.90;;;;;;;;;;5065240;28;20049;-74
2023/07/24 02:37:38;;;;;;;5.70;3.50;;;;;;;;;;5081059;28;20013;-73
2023/07/24 02:40:04;;;;;;;6.88;3.35;;;;;;;;;;5070260;28;20029;-73
2023/07/24 02:42:30;;;;;;;5.88;3.80;;;;;;;;;;5071195;28;20031;-72
2023/07/24 02:44:56;;;;;;;5.95;4.25;;;;;;;;;;5060792;28;20491;-72
2023/07/24 02:47:22;;;;;;;5.28;3.25;;;;;;;;;;5068044;28;20024;-73
2023/07/24 02:49:48;;;;;;;9.73;4.72;;;;;;;;;;5068935;28;20411;-72
2023/07/24 02:52:14;;;;;;;6.82;4.00;;;;;;;;;;5079231;28;20035;-72
2023/07/24 02:54:40;;;;;;;5.32;3.75;;;;;;;;;;5064252;28;20469;-72
2023/07/24 02:57:06;;;;;;;4.70;3.65;;;;;;;;;;5066196;28;20020;-72
2023/07/24 02:59:34;;;;;;;7.18;3.60;;;;;;;;;;5054971;28;20021;-73
2023/07/24 03:02:01;;;;;;;6.82;3.95;;;;;;;;;;5067969;28;20371;-73
2023/07/24 03:04:27;;;;;;;7.25;3.60;;;;;;;;;;5069175;28;20017;-73
2023/07/24 03:06:53;;;;;;;5.25;4.05;;;;;;;;;;5065615;28;20021;-73
2023/07/24 03:09:19;;;;;;;6.00;3.58;;;;;;;;;;5068200;28;20025;-73
2023/07/24 03:11:45;;;;;;;7.00;3.47;;;;;;;;;;5062863;28;20477;-73
2023/07/24 03:14:11;;;;;;;8.70;3.70;;;;;;;;;;5057903;28;20031;-73
2023/07/24 03:16:37;;;;;;;5.07;4.25;;;;;;;;;;5068985;28;20036;-73
2023/07/24 03:19:04;;;;;;;4.88;3.65;;;;;;;;;;5067269;28;20036;-73
2023/07/24 03:21:30;;;;;;;7.97;4.53;;;;;;;;;;5071069;28;20023;-73
2023/07/24 03:23:56;;;;;;;5.68;4.05;;;;;;;;;;5070621;28;20079;-73
2023/07/24 03:26:22;;;;;;;7.32;3.83;;;;;;;;;;5056129;28;20396;-73
2023/07/24 03:28:48;;;;;;;4.55;3.38;;;;;;;;;;5070554;28;20101;-73
2023/07/24 03:31:14;;;;;;;9.15;4.38;;;;;;;;;;5060775;28;20397;-72
2023/07/24 03:33:40;;;;;;;5.38;3.58;;;;;;;;;;5070858;28;20053;-73
2023/07/24 03:36:06;;;;;;;5.47;4.00;;;;;;;;;;5063478;28;20426;-73
2023/07/24 03:38:32;;;;;;;8.13;5.13;;;;;;;;;;5063890;28;20051;-73
2023/07/24 03:40:58;;;;;;;9.10;4.43;;;;;;;;;;5054791;28;20048;-73
2023/07/24 03:43:25;;;;;;;6.78;3.80;;;;;;;;;;5066748;28;20032;-73
2023/07/24 03:45:51;;;;;;;6.43;4.13;;;;;;;;;;5067036;28;20040;-73
2023/07/24 03:48:17;;;;;;;6.50;3.92;;;;;;;;;;5074876;28;20147;-73
2023/07/24 03:50:43;;;;;;;7.78;4.00;;;;;;;;;;5070131;28;20023;-73
2023/07/24 03:53:09;;;;;;;5.53;4.53;;;;;;;;;;5064439;28;20036;-73
2023/07/24 03:55:35;;;;;;;8.48;3.75;;;;;;;;;;5064012;28;20123;-73
2023/07/24 03:58:01;;;;;;;10.30;4.45;;;;;;;;;;5085444;28;20023;-73
2023/07/24 04:00:27;;;;;;;6.78;5.50;;;;;;;;;;5077870;28;20033;-73
2023/07/24 04:02:53;;;;;;;7.65;4.63;;;;;;;;;;5083839;28;20039;-73
2023/07/24 04:05:19;;;;;;;9.48;4.25;;;;;;;;;;5070515;28;20032;-73
2023/07/24 04:07:45;;;;;;;7.93;4.63;;;;;;;;;;5066736;28;20476;-73
2023/07/24 04:10:11;;;;;;;5.60;3.72;;;;;;;;;;5068097;28;20111;-73
2023/07/24 04:12:38;;;;;;;5.45;4.53;;;;;;;;;;5071472;28;20021;-73
2023/07/24 04:15:04;;;;;;;6.43;4.03;;;;;;;;;;5061822;28;20029;-73
2023/07/24 04:17:30;;;;;;;7.57;4.28;;;;;;;;;;5086617;28;20021;-73
2023/07/24 04:19:56;;;;;;;5.70;3.80;;;;;;;;;;5065650;28;20021;-73
2023/07/24 04:22:22;;;;;;;9.15;4.43;;;;;;;;;;5072121;28;20021;-72
2023/07/24 04:24:48;;;;;;;6.15;4.40;;;;;;;;;;5068494;28;20028;-73
2023/07/24 04:27:14;;;;;;;6.28;4.15;;;;;;;;;;5065601;28;20052;-73
2023/07/24 04:29:40;;;;;;;9.73;4.85;;;;;;;;;;5077012;28;20167;-73
2023/07/24 04:32:07;;;;;;;5.25;4.68;;;;;;;;;;5074331;28;20520;-73
2023/07/24 04:34:33;;;;;;;8.60;5.18;;;;;;;;;;5069384;28;20071;-73
2023/07/24 04:36:59;;;;;;;6.55;4.38;;;;;;;;;;5070314;28;20033;-72
2023/07/24 04:39:25;;;;;;;6.30;4.40;;;;;;;;;;5073463;28;20033;-72
2023/07/24 04:41:51;;;;;;;5.55;4.90;;;;;;;;;;5079457;28;20023;-73
2023/07/24 04:44:17;;;;;;;7.15;5.10;;;;;;;;;;5063231;28;20036;-72
2023/07/24 04:46:43;;;;;;;5.85;4.70;;;;;;;;;;5066994;28;20438;-73
2023/07/24 04:49:09;;;;;;;9.10;5.18;;;;;;;;;;5069855;28;20039;-73
2023/07/24 04:51:35;;;;;;;6.63;4.43;;;;;;;;;;5067785;28;20456;-72
2023/07/24 04:54:02;;;;;;;8.73;4.35;;;;;;;;;;5067563;28;20028;-73
2023/07/24 04:56:28;;;;;;;5.60;4.22;;;;;;;;;;5068576;28;20051;-73
2023/07/24 04:58:54;;;;;;;8.55;4.55;;;;;;;;;;5069459;28;20464;-73
2023/07/24 05:01:20;;;;;;;9.63;4.45;;;;;;;;;;5074128;28;20035;-73
2023/07/24 05:03:49;;;;;;;7.78;4.65;;;;;;;;;;5071149;28;20410;-73
2023/07/24 05:06:15;;;;;;;9.38;4.90;;;;;;;;;;5062959;28;20036;-73
2023/07/24 05:08:41;;;;;;;6.10;4.50;;;;;;;;;;5075230;28;20392;-73
2023/07/24 05:11:07;;;;;;;6.85;4.43;;;;;;;;;;5076514;28;20028;-73
2023/07/24 05:13:35;;;;;;;8.10;4.47;;;;;;;;;;5059198;28;20025;-74
2023/07/24 05:16:01;;;;;;;6.43;4.53;;;;;;;;;;5065074;28;20483;-73
2023/07/24 05:18:28;;;;;;;7.30;4.88;;;;;;;;;;5068438;28;20028;-73
2023/07/24 05:20:54;;;;;;;6.65;4.72;;;;;;;;;;5067778;28;20016;-73
2023/07/24 05:23:20;;;;;;;5.70;4.75;;;;;;;;;;5059235;28;20131;-72
2023/07/24 05:25:46;;;;;;;7.55;4.68;;;;;;;;;;5065058;28;20470;-73
2023/07/24 05:28:12;;;;;;;6.15;4.18;;;;;;;;;;5072997;28;20396;-73
2023/07/24 05:30:38;;;;;;;7.22;4.38;;;;;;;;;;5067870;28;20082;-74
2023/07/24 05:33:04;;;;;;;10.02;4.30;;;;;;;;;;5057220;28;20044;-73
2023/07/24 05:35:30;;;;;;;6.57;4.70;;;;;;;;;;5062790;28;20108;-74
2023/07/24 05:37:57;;;;;;;9.23;4.55;;;;;;;;;;5064485;28;20456;-74
2023/07/24 05:40:23;;;;;;;7.70;4.32;;;;;;;;;;5070091;28;20082;-73
2023/07/24 05:42:49;;;;;;;4.43;3.88;;;;;;;;;;5061483;28;20066;-74
2023/07/24 05:45:15;;;;;;;9.00;4.55;;;;;;;;;;5060585;28;20032;-74
2023/07/24 05:47:41;;;;;;;6.32;4.32;;;;;;;;;;5060485;28;20025;-74
2023/07/24 05:50:07;;;;;;;7.22;5.00;;;;;;;;;;5062611;28;20028;-74
2023/07/24 05:52:33;;;;;;;6.75;4.53;;;;;;;;;;5058386;28;20136;-72
2023/07/24 05:55:00;;;;;;;10.05;4.20;;;;;;;;;;5061419;28;20024;-72
2023/07/24 05:57:26;;;;;;;5.45;4.30;;;;;;;;;;5062005;28;20610;-74
2023/07/24 05:59:52;;;;;;;4.88;4.00;;;;;;;;;;5056583;28;20020;-73
2023/07/24 06:02:19;;;;;;;5.15;4.35;;;;;;;;;;5064384;28;20049;-73
2023/07/24 06:04:45;;;;;;;7.07;4.60;;;;;;;;;;5058808;28;20024;-74
2023/07/24 06:07:11;;;;;;;6.57;4.70;;;;;;;;;;5052546;28;20028;-73
2023/07/24 06:09:37;;;;;;;7.22;4.88;;;;;;;;;;5052967;28;20040;-74
2023/07/24 06:12:03;;;;;;;5.65;4.28;;;;;;;;;;5049692;28;20037;-73
2023/07/24 06:14:29;;;;;;;6.13;4.47;;;;;;;;;;5049335;28;20032;-75
2023/07/24 06:16:55;;;;;;;8.15;4.55;;;;;;;;;;5047499;28;20041;-73
2023/07/24 06:19:24;;;;;;;4.80;4.25;;;;;;;;;;5052216;28;20045;-74
2023/07/24 06:21:50;;;;;;;6.13;4.28;;;;;;;;;;5046645;28;20029;-74
2023/07/24 06:24:16;;;;;;;5.75;4.43;;;;;;;;;;5051557;28;20032;-74
2023/07/24 06:26:42;;;;;;;6.18;4.18;;;;;;;;;;5050832;28;20106;-73
2023/07/24 06:29:09;;;;;;;7.95;4.07;;;;;;;;;;5055597;28;20028;-74
2023/07/24 06:31:35;;;;;;;8.30;5.03;;;;;;;;;;5043511;28;20330;-73
2023/07/24 06:34:01;;;;;;;6.68;3.90;;;;;;;;;;5047631;28;20037;-74
2023/07/24 06:36:28;;;;;;;5.25;3.80;;;;;;;;;;5054442;28;20527;-74
2023/07/24 06:38:54;;;;;;;10.50;4.80;;;;;;;;;;5050143;28;20028;-75
2023/07/24 06:41:22;;;;;;;10.15;4.40;;;;;;;;;;5047623;28;20048;-74
2023/07/24 06:43:49;;;;;;;6.28;4.43;;;;;;;;;;5049988;28;20028;-74
2023/07/24 06:46:15;;;;;;;6.30;4.10;;;;;;;;;;5047912;28;20037;-73
2023/07/24 06:48:41;;;;;;;8.50;4.00;;;;;;;;;;5049366;28;20036;-73
2023/07/24 06:51:07;;;;;;;4.68;3.97;;;;;;;;;;5047960;28;20029;-74
2023/07/24 06:53:33;;;;;;;6.55;3.88;;;;;;;;;;5059051;28;20698;-73
2023/07/24 06:56:01;;;;;;;5.78;3.63;;;;;;;;;;5049782;28;20391;-74
2023/07/24 06:58:27;;;;;;;5.30;3.80;;;;;;;;;;5046250;28;20031;-73
2023/07/24 07:00:53;;;;;;;6.28;4.30;;;;;;;;;;5063849;28;20021;-73
2023/07/24 07:03:20;;;;;;;5.28;3.90;;;;;;;;;;5053817;28;20119;-73
2023/07/24 07:05:46;;;;;;;7.53;4.03;;;;;;;;;;5052309;28;20060;-74
2023/07/24 07:08:12;;;;;;;5.32;4.30;;;;;;;;;;5056746;28;20060;-75
2023/07/24 07:10:38;;;;;;;4.57;3.60;;;;;;;;;;5060183;28;20033;-73
2023/07/24 07:13:04;;;;;;;6.60;3.92;;;;;;;;;;5064871;28;20024;-73
2023/07/24 07:15:30;;;;;;;4.45;3.85;;;;;;;;;;5072811;28;20078;-74
2023/07/24 07:17:56;;;;;;;6.63;4.07;;;;;;;;;;5065738;28;20549;-73
2023/07/24 07:20:22;;;;;;;7.00;3.67;;;;;;;;;;5067075;28;20021;-73
2023/07/24 07:22:49;;;;;;;5.07;3.80;;;;;;;;;;5067132;28;20051;-74
2023/07/24 07:25:15;;;;;;;4.47;3.80;;;;;;;;;;5067558;28;20052;-74
2023/07/24 07:27:42;;;;;;;4.65;3.50;;;;;;;;;;5071282;28;20033;-73
2023/07/24 07:30:08;;;;;;;8.73;3.30;;;;;;;;;;5067301;28;20377;-74
2023/07/24 07:32:34;;;;;;;5.57;3.65;;;;;;;;;;5074513;28;20031;-74
2023/07/24 07:35:03;;;;;;;5.07;3.17;;;;;;;;;;5067314;28;20044;-74
2023/07/24 07:37:29;;;;;;;5.75;3.83;;;;;;;;;;5072079;28;20523;-74
2023/07/24 07:39:55;;;;;;;4.47;3.10;;;;;;;;;;5073961;28;20460;-73
2023/07/24 07:42:21;;;;;;;4.85;3.25;;;;;;;;;;5060357;28;20024;-74
2023/07/24 07:44:47;;;;;;;5.38;3.33;;;;;;;;;;5071077;28;20025;-75
2023/07/24 07:47:13;;;;;;;4.13;3.33;;;;;;;;;;5066862;28;20028;-74
2023/07/24 07:49:41;;;;;;;6.72;3.20;;;;;;;;;;5068659;28;20031;-75
2023/07/24 07:52:07;;;;;;;6.35;3.85;;;;;;;;;;5073438;28;20124;-74
2023/07/24 07:54:33;;;;;;;6.85;3.55;;;;;;;;;;5078651;28;20488;-74
2023/07/24 07:57:02;;;;;;;3.72;3.13;;;;;;;;;;5076538;28;20025;-74
2023/07/24 07:59:28;;;;;;;4.93;3.20;;;;;;;;;;5067682;28;20484;-74
2023/07/24 08:01:54;;;;;;;6.97;3.65;;;;;;;;;;5076737;28;20076;-75
2023/07/24 08:04:20;;;;;;;5.28;4.32;;;;;;;;;;5076025;28;20581;-74
2023/07/24 08:06:46;;;;;;;4.72;2.97;;;;;;;;;;5064167;28;20025;-74
2023/07/24 08:09:12;;;;;;;6.65;3.25;;;;;;;;;;5060947;28;20074;-75
2023/07/24 08:11:38;;;;;;;3.60;2.90;;;;;;;;;;5074918;28;20025;-75
2023/07/24 08:14:04;;;;;;;4.75;3.58;;;;;;;;;;5068282;28;20025;-73
2023/07/24 08:16:30;;;;;;;3.80;2.85;;;;;;;;;;5071697;28;20472;-74
2023/07/24 08:18:56;;;;;;;4.25;2.60;;;;;;;;;;5076040;28;20021;-75
2023/07/24 08:21:23;;;;;;;6.10;2.92;;;;;;;;;;5076095;28;20067;-74
2023/07/24 08:23:49;;;;;;;4.40;3.10;;;;;;;;;;5066640;28;20545;-75
2023/07/24 08:26:15;;;;;;;5.82;3.10;;;;;;;;;;5075504;28;20048;-75
2023/07/24 08:28:42;;;;;;;4.13;3.10;;;;;;;;;;5077065;28;20430;-75
2023/07/24 08:31:09;;;;;;;6.75;2.80;;;;;;;;;;5077314;28;20021;-76
2023/07/24 08:33:35;;;;;;;5.60;3.33;;;;;;;;;;5076979;28;20040;-76
2023/07/24 08:36:05;;;;;;;4.90;3.08;;;;;;;;;;5076731;28;20025;-76
2023/07/24 08:38:31;;;;;;;4.18;3.00;;;;;;;;;;5076849;28;20084;-75
2023/07/24 08:41:02;;;;;;;3.63;3.33;;;;;;;;;;5074899;28;20074;-75
2023/07/24 08:43:30;;;;;;;4.50;3.10;;;;;;;;;;5080113;28;20025;-79
2023/07/24 08:45:56;;;;;;;4.22;2.80;;;;;;;;;;5080688;28;20024;-78
2023/07/24 08:48:23;;;;;;;4.97;2.97;;;;;;;;;;5086658;28;20156;-80
2023/07/24 08:50:50;;;;;;;3.10;2.80;;;;;;;;;;5081463;28;20025;-79
2023/07/24 08:53:18;;;;;;;4.22;2.90;;;;;;;;;;5079191;28;20036;-81
2023/07/24 08:55:45;;;;;;;5.47;3.70;;;;;;;;;;5071096;28;20033;-80
2023/07/24 08:58:11;;;;;;;3.70;2.58;;;;;;;;;;5085161;28;20021;-85
2023/07/24 09:00:37;;;;;;;4.00;2.80;;;;;;;;;;5063044;28;20020;-85
2023/07/24 09:03:03;;;;;;;5.15;2.47;;;;;;;;;;5071055;28;20024;-82
2023/07/24 09:05:29;;;;;;;6.18;2.83;;;;;;;;;;5064669;28;20036;-81
2023/07/24 09:07:56;;;;;;;4.30;3.25;;;;;;;;;;5062434;28;20032;-78
2023/07/24 09:10:25;;;;;;;4.50;2.63;;;;;;;;;;5066222;28;20039;-88
2023/07/24 09:13:05;;;;;;;3.75;2.90;;;;;;;;;;5070959;28;20546;-81
2023/07/24 09:15:41;;;;;;;4.35;2.50;;;;;;;;;;5074921;28;20044;-82
2023/07/24 09:18:07;;;;;;;5.07;3.13;;;;;;;;;;5067250;28;20061;-85
2023/07/24 09:20:40;;;;;;;3.25;2.90;;;;;;;;;;5065996;28;20025;-84
2023/07/24 09:23:07;;;;;;;6.13;2.75;;;;;;;;;;5076996;28;20029;-85
2023/07/24 09:25:34;;;;;;;4.70;2.97;;;;;;;;;;5057544;28;20033;-83
2023/07/24 09:28:00;;;;;;;4.88;2.80;;;;;;;;;;5060339;28;20067;-82
2023/07/24 09:30:48;;;;;;;3.67;2.70;;;;;;;;;;5059405;28;20031;-83
2023/07/24 09:33:14;;;;;;;3.40;2.78;;;;;;;;;;5050345;28;20040;-79
2023/07/24 09:35:40;;;;;;;5.32;3.25;;;;;;;;;;5081251;28;20036;-81
2023/07/24 09:38:08;;;;;;;7.00;3.85;;;;;;;;;;5072437;28;20528;-84
2023/07/24 09:40:53;;;;;;;3.03;2.60;;;;;;;;;;5071012;28;20067;-84
2023/07/24 09:43:21;;;;;;;5.20;3.00;;;;;;;;;;5077423;28;20029;-85
2023/07/24 09:45:47;;;;;;;5.00;2.42;;;;;;;;;;5071654;28;20032;-84
2023/07/24 09:48:14;;;;;;;5.13;3.50;;;;;;;;;;5070076;28;20071;-84
2023/07/24 09:50:45;;;;;;;3.58;2.80;;;;;;;;;;5076237;28;20051;-82
2023/07/24 09:53:22;;;;;;;2.88;2.63;;;;;;;;;;5065941;28;20510;-79
2023/07/24 09:56:11;;;;;;;4.97;3.70;;;;;;;;;;5066333;28;20074;-79
2023/07/24 09:58:38;;;;;;;3.92;2.38;;;;;;;;;;5057067;28;20017;-80
2023/07/24 10:01:05;;;;;;;5.28;3.58;;;;;;;;;;5063823;28;20051;-77
2023/07/24 10:03:34;;;;;;;3.58;2.70;;;;;;;;;;5059746;28;20106;-78
2023/07/24 10:06:00;;;;;;;3.55;2.90;;;;;;;;;;5062283;28;20055;-77
2023/07/24 10:08:27;;;;;;;3.17;2.80;;;;;;;;;;5065866;28;20103;-77
2023/07/24 10:10:53;;;;;;;3.50;2.78;;;;;;;;;;5057468;28;20056;-79
2023/07/24 10:13:20;;;;;;;5.40;2.78;;;;;;;;;;5068831;28;20028;-76
2023/07/24 10:15:47;;;;;;;4.43;2.63;;;;;;;;;;5063641;28;20365;-78
2023/07/24 10:18:15;;;;;;;4.90;3.00;;;;;;;;;;5062416;28;20017;-81
2023/07/24 10:20:42;;;;;;;7.32;2.97;;;;;;;;;;5058069;28;20094;-77
2023/07/24 10:23:09;;;;;;;6.32;2.63;;;;;;;;;;5067583;28;20024;-78
2023/07/24 10:25:36;;;;;;;3.72;2.80;;;;;;;;;;5074192;28;20024;-79
2023/07/24 10:28:12;;;;;;;4.68;2.65;;;;;;;;;;5087377;28;20024;-81
2023/07/24 10:30:39;;;;;;;4.53;2.30;;;;;;;;;;5066021;28;20029;-79
2023/07/24 10:33:07;;;;;;;7.07;2.40;;;;;;;;;;5066118;28;20462;-78
2023/07/24 10:35:39;;;;;;;2.83;2.40;;;;;;;;;;5082366;28;20028;-78
2023/07/24 10:38:05;;;;;;;5.07;2.70;;;;;;;;;;5058429;28;20201;-78
2023/07/24 10:40:31;;;;;;;3.33;2.55;;;;;;;;;;5057205;28;20073;-77
2023/07/24 10:43:20;;;;;;;4.32;2.83;;;;;;;;;;5064850;28;20555;-77
2023/07/24 10:45:50;;;;;;;3.72;2.40;;;;;;;;;;5062447;28;20112;-77
2023/07/24 10:48:17;;;;;;;3.40;2.15;;;;;;;;;;5062400;28;20116;-79
2023/07/24 10:50:44;;;;;;;3.03;2.10;;;;;;;;;;5076807;28;20357;-78
2023/07/24 10:53:11;;;;;;;3.33;2.00;;;;;;;;;;5066159;28;20089;-76
2023/07/24 10:55:37;;;;;;;6.82;2.45;;;;;;;;;;5063212;28;20120;-77
2023/07/24 10:58:03;;;;;;;2.53;2.13;;;;;;;;;;5071398;28;20555;-77
2023/07/24 11:00:30;;;;;;;2.78;2.20;;;;;;;;;;5061481;28;20021;-78
2023/07/24 11:02:56;;;;;;;5.35;2.20;;;;;;;;;;5063368;28;20118;-79
2023/07/24 11:05:23;;;;;;;3.95;2.45;;;;;;;;;;5067699;28;20029;-80
2023/07/24 11:07:49;;;;;;;5.25;2.42;;;;;;;;;;5069775;28;20475;-78
2023/07/24 11:10:19;;;;;;;2.63;2.15;;;;;;;;;;5063533;28;20501;-81
2023/07/24 11:12:45;;;;;;;2.63;2.22;;;;;;;;;;5067385;28;20032;-80
2023/07/24 11:15:12;;;;;;;4.10;2.20;;;;;;;;;;5064572;28;20060;-78
2023/07/24 11:17:42;;;;;;;6.00;2.28;;;;;;;;;;5062875;28;20085;-79
2023/07/24 11:20:09;;;;;;;3.78;2.40;;;;;;;;;;5060547;28;20025;-82
2023/07/24 11:22:35;;;;;;;4.15;2.65;;;;;;;;;;5074151;28;20032;-82
2023/07/24 11:25:01;;;;;;;2.55;2.08;;;;;;;;;;5064663;28;20029;-81
2023/07/24 11:27:27;;;;;;;2.75;2.40;;;;;;;;;;5059146;28;20051;-79
2023/07/24 11:29:54;;;;;;;2.38;2.08;;;;;;;;;;5056355;28;20021;-79
2023/07/24 11:32:23;;;;;;;3.67;2.35;;;;;;;;;;5056902;28;20025;-82
2023/07/24 11:34:50;;;;;;;3.45;2.42;;;;;;;;;;5064787;28;20051;-81
2023/07/24 11:37:17;;;;;;;4.10;2.35;;;;;;;;;;5074107;28;20596;-79
2023/07/24 11:39:43;;;;;;;2.65;2.20;;;;;;;;;;5062928;28;20219;-78
2023/07/24 11:42:09;;;;;;;2.97;2.20;;;;;;;;;;5055119;28;20025;-80
2023/07/24 11:44:35;;;;;;;3.88;2.65;;;;;;;;;;5070752;28;20028;-80
2023/07/24 11:47:03;;;;;;;3.63;2.33;;;;;;;;;;5061168;28;20032;-79
2023/07/24 11:49:32;;;;;;;4.65;2.65;;;;;;;;;;5053894;28;20090;-71
2023/07/24 11:52:02;;;;;;;4.35;2.03;;;;;;;;;;5056004;28;20016;-73
2023/07/24 11:54:28;;;;;;;4.18;2.25;;;;;;;;;;5068869;28;20479;-72
2023/07/24 11:56:54;;;;;;;3.50;2.38;;;;;;;;;;5054904;28;20139;-71
2023/07/24 11:59:20;;;;;;;5.15;2.97;;;;;;;;;;5076974;28;20411;-72
2023/07/24 12:01:50;;;;;;;3.67;2.22;;;;;;;;;;5061656;28;20041;-72
2023/07/24 12:04:16;;;;;;;2.80;2.38;;;;;;;;;;5078372;28;20106;-72
2023/07/24 12:06:42;;;;;;;3.88;2.65;;;;;;;;;;5059297;28;20028;-70
2023/07/24 12:09:10;;;;;;;2.42;2.10;;;;;;;;;;5061994;28;20311;-73
2023/07/24 12:11:43;;;;;;;3.22;2.38;;;;;;;;;;5075195;28;20051;-72
2023/07/24 12:14:10;;;;;;;4.18;2.40;;;;;;;;;;5061887;28;20040;-71
2023/07/24 12:16:36;;;;;;;2.92;2.40;;;;;;;;;;5057147;28;20167;-71
2023/07/24 12:19:02;;;;;;;3.92;2.42;;;;;;;;;;5062537;28;20354;-71
2023/07/24 12:21:29;;;;;;;4.43;2.30;;;;;;;;;;5074370;28;20040;-72
2023/07/24 12:23:55;;;;;;;4.43;2.38;;;;;;;;;;5069373;28;20106;-72
2023/07/24 12:26:22;;;;;;;3.45;2.40;;;;;;;;;;5056426;28;20062;-71
2023/07/24 12:28:48;;;;;;;4.25;2.78;;;;;;;;;;5073319;28;20025;-68
2023/07/24 12:31:16;;;;;;;2.95;2.10;;;;;;;;;;5056779;28;20094;-82
2023/07/24 12:33:42;;;;;;;5.82;2.30;;;;;;;;;;5061962;28;20047;-80
2023/07/24 12:36:08;;;;;;;4.72;2.50;;;;;;;;;;5078550;28;20040;-81
2023/07/24 12:38:38;;;;;;;3.58;2.35;;;;;;;;;;5070543;28;20029;-82
2023/07/24 12:41:04;;;;;;;4.28;2.17;;;;;;;;;;5077413;28;20024;-83
2023/07/24 12:43:32;;;;;;;2.83;2.20;;;;;;;;;;5071021;28;20032;-81
2023/07/24 12:45:58;;;;;;;3.75;2.30;;;;;;;;;;5067730;28;20387;-81
2023/07/24 12:48:24;;;;;;;4.53;2.78;;;;;;;;;;5060906;28;20035;-79
2023/07/24 12:50:51;;;;;;;3.70;2.50;;;;;;;;;;5065918;28;20472;-80
2023/07/24 12:53:18;;;;;;;2.88;2.38;;;;;;;;;;5077076;28;20060;-77
2023/07/24 12:55:44;;;;;;;8.57;4.05;;;;;;;;;;5064927;28;20036;-78
2023/07/24 12:58:10;;;;;;;15.10;5.78;;;;;;;;;;5066775;28;20075;-78
2023/07/24 13:00:36;;;;;;;12.48;4.07;;;;;;;;;;5066286;28;20044;-81
2023/07/24 13:03:02;;;;;;;4.47;2.58;;;;;;;;;;5060356;28;20074;-79
2023/07/24 13:05:29;;;;;;;4.07;2.65;;;;;;;;;;5066468;28;20029;-78
2023/07/24 13:07:55;;;;;;;3.55;3.08;;;;;;;;;;5062896;28;20024;-78
2023/07/24 13:10:21;;;;;;;6.72;3.05;;;;;;;;;;5071630;28;20028;-80
2023/07/24 13:12:47;;;;;;;3.85;2.60;;;;;;;;;;5071110;28;20028;-78
2023/07/24 13:15:14;;;;;;;4.07;2.80;;;;;;;;;;5055859;28;20083;-77
2023/07/24 13:17:40;;;;;;;7.65;2.97;;;;;;;;;;5071922;28;20147;-78
2023/07/24 13:20:06;;;;;;;4.75;2.90;;;;;;;;;;5053403;28;20479;-79
2023/07/24 13:22:34;;;;;;;4.43;2.70;;;;;;;;;;5067952;28;20058;-78
2023/07/24 13:25:00;;;;;;;4.38;2.35;;;;;;;;;;5064147;28;20025;-79
2023/07/24 13:27:26;;;;;;;5.40;2.42;;;;;;;;;;5068466;28;20040;-77
2023/07/24 13:29:52;;;;;;;5.47;2.63;;;;;;;;;;5067221;28;20032;-78
2023/07/24 13:32:18;;;;;;;7.95;3.38;;;;;;;;;;5064216;28;20472;-76
2023/07/24 13:34:44;;;;;;;5.72;2.53;;;;;;;;;;5060613;28;20464;-78
2023/07/24 13:37:11;;;;;;;7.28;3.10;;;;;;;;;;5072322;28;20041;-77
2023/07/24 13:39:37;;;;;;;3.45;2.47;;;;;;;;;;5064121;28;20028;-77
2023/07/24 13:42:03;;;;;;;4.70;2.22;;;;;;;;;;5060535;28;20025;-78
2023/07/24 13:44:29;;;;;;;3.22;2.17;;;;;;;;;;5060651;28;20025;-77
2023/07/24 13:46:57;;;;;;;3.90;2.30;;;;;;;;;;5073589;28;20096;-77
2023/07/24 13:49:23;;;;;;;4.38;2.42;;;;;;;;;;5063406;28;20091;-78
2023/07/24 13:51:49;;;;;;;3.45;2.58;;;;;;;;;;5054734;28;20024;-76
2023/07/24 13:54:15;;;;;;;4.45;2.35;;;;;;;;;;5060679;28;20032;-78
2023/07/24 13:56:44;;;;;;;5.13;2.85;;;;;;;;;;5055558;28;20028;-77
2023/07/24 13:59:10;;;;;;;5.47;2.47;;;;;;;;;;5080360;28;20028;-77
2023/07/24 14:01:36;;;;;;;3.80;2.33;;;;;;;;;;5058064;28;20024;-77
2023/07/24 14:04:02;;;;;;;3.88;2.50;;;;;;;;;;5066729;28;20484;-77
2023/07/24 14:06:28;;;;;;;5.03;2.47;;;;;;;;;;5057975;28;20032;-78
2023/07/24 14:08:54;;;;;;;5.68;3.03;;;;;;;;;;5054675;28;20044;-77
2023/07/24 14:11:20;;;;;;;5.35;2.58;;;;;;;;;;5057950;28;20039;-76
2023/07/24 14:13:46;;;;;;;4.35;2.60;;;;;;;;;;5062212;28;20043;-77
2023/07/24 14:16:12;;;;;;;4.85;2.20;;;;;;;;;;5062586;28;20509;-77
2023/07/24 14:18:38;;;;;;;4.15;2.40;;;;;;;;;;5052156;28;21459;-76
2023/07/24 14:21:05;;;;;;;4.75;2.33;;;;;;;;;;5066311;28;20044;-78
2023/07/24 14:23:31;;;;;;;2.53;2.33;;;;;;;;;;5053893;28;20029;-77
2023/07/24 14:25:57;;;;;;;5.45;2.45;;;;;;;;;;5060880;28;20376;-76
2023/07/24 14:28:27;;;;;;;7.30;2.40;;;;;;;;;;5056916;28;20466;-77
2023/07/24 14:30:53;;;;;;;2.88;2.10;;;;;;;;;;5057460;28;20031;-77
2023/07/24 14:33:19;;;;;;;2.97;2.47;;;;;;;;;;5059231;28;20052;-72
2023/07/24 14:35:45;;;;;;;2.35;2.00;;;;;;;;;;5061477;28;20039;-75
2023/07/24 14:38:11;;;;;;;3.95;2.33;;;;;;;;;;5054155;28;20033;-77
2023/07/24 14:40:39;;;;;;;3.80;2.20;;;;;;;;;;5063321;28;20450;-78